AirNav   Everest Fuels
 
 1031 users online  

KGKY Arlington Municipal Airport
Arlington, Texas, USA

GOING TO ARLINGTON?


FAA INFORMATION EFFECTIVE 21 MAY 2020

Location

FAA Identifier: GKY
Lat/Long: 32-39-49.9000N 097-05-39.4000W
32-39.831667N 097-05.656667W
32.6638611,-97.0942778
(estimated)
Elevation: 628.2 ft. / 191.5 m (surveyed)
Variation: 06E (2000)
From city: 4 miles S of ARLINGTON, TX
Time zone: UTC -5 (UTC -6 during Standard Time)
Zip code: 76018

Airport Operations

Airport use: Open to the public
Activation date: 05/1971
Control tower: yes
ARTCC: FORT WORTH CENTER
FSS: FORT WORTH FLIGHT SERVICE STATION
NOTAMs facility: GKY (NOTAM-D service available)
Attendance: CONTINUOUS
Wind indicator: lighted
Segmented circle: yes
Lights: MIRL RWY 16/34 PRESET MED INTST; HIGHER INTST BY ATCT REQ. WHEN ATCT CLSD ACTVT MALSR RWY 34 - CTAF. PAPI RWYS 16 & 34 OPR CONSLY.
Beacon: white-green (lighted land airport)
Operates sunset to sunrise.

Airport Communications

CTAF: 128.625
WX ASOS: 127.375 (817-557-0251)
ARLINGTON GROUND: 121.875 [0700-2100]
ARLINGTON TOWER: 128.625 [0700-2100]
REGIONAL APPROACH: 135.975
REGIONAL DEPARTURE: 135.975
CLEARANCE DELIVERY: 121.875 118.85 ;WHEN GKY TWR CLSD
DODJE STAR: 125.2 125.9
JOE POOL DP: 135.975
KNEAD STAR: 135.975
LIKES STAR: 125.8 ;SOUTH 135.975 ;NORTH
MOTZA STAR: 118.1 ;SOUTH 125.8 ;NORTH
REEKO STAR: 125.2
SANGR STAR: 124.3
SASIE STAR: 124.3
SLUGG STAR: 125.8 ;SOUTH 135.975 ;NORTH
SWVAY STAR: 135.975
WESAT STAR: 118.1 ;SOUTH 125.8 ;NORTH
WX AWOS-3P at GPM (3 nm NE): 118.475 (972-606-1433)
WX ASOS at RBD (11 nm E): PHONE 214-330-5317
WX AWOS-3 at FWS (12 nm SW): 120.025 (817-426-4172)
WX ASOS at DFW (14 nm N): PHONE 972-615-2608
WX AWOS-3 at JWY (15 nm SE): 119.575 (972-937-4747)
WX AWOS-3 at 49T (16 nm NE): 135.425 (214-670-1243)
WX ASOS at DAL (16 nm NE): PHONE 214-353-1551
WX ASOS at FTW (16 nm NW): PHONE 817-740-3346
WX AWOS-3 at LNC (20 nm E): 118.975 (972-227-0471)

Nearby radio navigation aids

VOR radial/distance  VOR name  Freq  Var
TTTr186/12.6MAVERICK VOR/DME113.1006E
FUZr156/14.2RANGER VORTAC115.7006E
CVEr209/16.6COWBOY VOR/DME116.2006E

 
NDB name  Hdg/Dist  Freq  Var  ID
MESQUITE250/29.824803EPQF .--. --.- ..-.

Airport Services

Fuel available: 100LL JET-A
SELF SERVE FUEL WITH MAJOR CREDIT CARD.
Parking: hangars and tiedowns
Airframe service: MAJOR
Powerplant service: MAJOR
Bottled oxygen: LOW
Bulk oxygen: NONE

Runway Information

Runway 16/34

Dimensions: 6080 x 100 ft. / 1853 x 30 m
Surface: concrete, in good condition
Weight bearing capacity: 
Single wheel: 60.0
Runway edge lights: medium intensity
RUNWAY 16  RUNWAY 34
Latitude: 32-40.322683N32-39.341885N
Longitude: 097-05.779817W097-05.533875W
Elevation: 628.2 ft.596.9 ft.
Traffic pattern: leftleft
Runway heading: 162 magnetic, 168 true342 magnetic, 348 true
Markings: nonprecision, in good conditionprecision, in good condition
Visual slope indicator: 4-light PAPI on left (3.00 degrees glide path)4-light PAPI on left (3.00 degrees glide path)
Approach lights: MALSR: 1,400 foot medium intensity approach lighting system with runway alignment indicator lights
Runway end identifier lights: yesno
Touchdown point: yes, no lightsyes, no lights
Instrument approach: ILS/DME

Airport Ownership and Management from official FAA records

Ownership: Publicly-owned
Owner: CITY OF ARLINGTON
PO BOX 90231
ARLINGTON, TX 76004-3231
Phone 817-459-6100
Manager: KAREN VAN WINKLE
5000 S. COLLINS
ARLINGTON, TX 76004-3231
Phone 817-459-5570
SUITE 100

Airport Operational Statistics

Aircraft based on the field: 185
Single engine airplanes: 150
Multi engine airplanes: 21
Jet airplanes: 6
Helicopters: 7
Gliders airplanes: 1
    
Aircraft operations: avg 242/day *
54% transient general aviation
44% local general aviation
1% air taxi
<1% military
<1% commercial
* for 12-month period ending 31 December 2015

Additional Remarks

EXTSV HEL TFC WEST OF RWY.
HEL TEST FAC AT ARPT, 1975 OPNS 15200, MOSTLY FM PVT HELIPAD ADJOINING LNDG AREA.

Instrument Procedures

NOTE: All procedures below are presented as PDF files. If you need a reader for these files, you should download the free Adobe Reader.

NOT FOR NAVIGATION. Please procure official charts for flight.
FAA instrument procedures published for use from 21 May 2020 at 0901Z to 18 June 2020 at 0900Z.

 
STARs - Standard Terminal Arrivals
DODJE SIX **NEW**   2 pages: [1] [2] (784KB)
KNEAD EIGHT   2 pages: [1] [2] (479KB)
MOTZA NINE **CHANGED**   2 pages: [1] [2] (538KB)
REEKO THREE (RNAV)   download (226KB)
SASIE SIX   2 pages: [1] [2] (529KB)
SWVAY FOUR (RNAV)   download (252KB)
TRUUK TWO (RNAV)   download (224KB)
WESAT TWO (RNAV)   download (218KB)
 
IAPs - Instrument Approach Procedures
ILS OR LOC/DME RWY 34   download (284KB)
RNAV (GPS) RWY 34   download (238KB)
VOR/DME RWY 34   download (223KB)
NOTE: Special Alternate Minimums apply   download (16KB)
 
Departure Procedures
DALLAS SIX **NEW**   2 pages: [1] [2] (412KB)
GARLAND EIGHT **NEW**   2 pages: [1] [2] (377KB)
JOE POOL ONE   2 pages: [1] [2] (571KB)
KINGDOM SEVEN **NEW**   2 pages: [1] [2] (406KB)
KUSSO SIX (RNAV)   2 pages: [1] [2] (355KB)
SWABR SIX (RNAV)   2 pages: [1] [2] (354KB)
TEXOMA EIGHT **NEW**   2 pages: [1] [2] (514KB)
WORTH FOUR **NEW**   2 pages: [1] [2] (446KB)
NOTE: Special Take-Off Minimums/Departure Procedures apply   download

Other nearby airports with instrument procedures:

KGPM - Grand Prairie Municipal Airport (3 nm NE)
KRBD - Dallas Executive Airport (11 nm E)
KFWS - Fort Worth Spinks Airport (12 nm SW)
KDFW - Dallas-Fort Worth International Airport (14 nm N)
KJWY - Mid-Way Regional Airport (15 nm SE)
KDAL - Dallas Love Field Airport (16 nm NE)
KFTW - Fort Worth Meacham International Airport (16 nm NW)
KNFW - Fort Worth Naval Air Station JRB (Carswell Field) Airport (19 nm W)
KLNC - Lancaster Regional Airport (20 nm E)
 
Loc | Ops | Rwys | IFR | FBO | Links
Com | Nav | Svcs | Stats | Notes

City of Fort Worth
 
Area around KGKY (Arlington Municipal Airport)
 
Road maps at: MapQuest Bing Google
 
Aerial photo
WARNING: Photo may not be current or correct
Aerial photo of KGKY (Arlington Municipal Airport)
Photo by Jeff Law
Photo taken 19-Feb-2013
looking northwest.

Do you have a better or more recent aerial photo of Arlington Municipal Airport that you would like to share? If so, please send us your photo.

 
Sectional chart

 
Airport diagram
CAUTION: Diagram may not be current
Diagram of KGKY (Arlington Municipal Airport)
 
Airport distance calculator
Flying to Arlington Municipal Airport? Find the distance to fly.

From to KGKY

Sunrise and sunset
Times for 26-May-2020
 Local
(UTC-5)
 Zulu
(UTC)
Morning civil twilight05:5610:56
Sunrise06:2411:24
Sunset20:2701:27
Evening civil twilight20:5501:55

Current date and time
Zulu (UTC)  26-May-2020 12:57:01
Local (UTC-5)  26-May-2020 07:57:01
 
METAR
KGKY 261153Z 28004KT 10SM -RA OVC100 19/16 A2991 RMK AO2 RAE13B43 SLP122 P0000 60000 7//// T01890156 10194 20183 51010 $
KGPM 
3nm NE 
261150Z 27005KT 10SM SKC 18/17 A2992
KRBD 
12nm E 
261153Z 28004KT 10SM BKN090 BKN110 18/16 A2989 RMK AO2 RAB1055E07 SLP117 P0000 60001 70110 T01830156 10189 20178 51010 $
KFWS 
12nm SW 
261146Z 29005KT 10SM BKN049 BKN100 17/15 A2993
KDFW 
15nm N 
261153Z 29009KT 10SM -RA FEW044 BKN100 OVC160 17/16 A2990 RMK AO2 RAB50 SLP118 VIRGA NW P0000 60000 70165 T01720156 10189 20172 51014 $
KJWY 
15nm SE 
261235Z AUTO 24003KT 10SM BKN029 BKN034 OVC120 18/18 A2994 RMK AO2 T01750175
KDAL 
17nm NE 
261153Z 31006KT 10SM SCT040 SCT050 BKN110 BKN140 OVC250 18/16 A2989 RMK AO2 SLP118 70116 T01830156 10189 20178 51008 $
KFTW 
17nm NW 
261153Z 28005KT 10SM FEW080 17/15 A2992 RMK AO2 SLP125 7//// T01670150 10178 20161 51015 $
KNFW 
19nm W 
261152Z 29009KT 10SM FEW032 BKN120 BKN220 18/14 A2993 RMK AO2 SLP118 70115 T01780144 10194 20178 53014 VISNO N $
KLNC 
20nm E 
261235Z AUTO 00000KT 10SM SCT037 OVC110 18/17 A2993 RMK AO2 T01750170
TAF
KGKY 261120Z 2612/2712 30006KT P6SM BKN050 TEMPO 2613/2616 OVC025 FM261600 30007KT P6SM BKN050 FM261800 29007KT P6SM VCTS BKN060CB FM262200 30008KT P6SM VCSH BKN070 FM270200 33003KT P6SM SCT250
KDFW 
15nm N 
261120Z 2612/2718 30006KT P6SM BKN050 TEMPO 2613/2616 OVC025 FM261800 29007KT P6SM VCTS BKN060CB FM262200 30008KT P6SM VCSH BKN070 FM270200 33003KT P6SM SCT250
KDAL 
17nm NE 
261120Z 2612/2712 30006KT P6SM BKN050 TEMPO 2613/2616 OVC025 FM261600 30007KT P6SM BKN050 FM261800 29007KT P6SM VCTS BKN060CB FM262200 30008KT P6SM VCSH BKN070 FM270200 33003KT P6SM SCT250
KFTW 
17nm NW 
261120Z 2612/2712 30006KT P6SM BKN050 TEMPO 2613/2616 OVC025 FM261600 30007KT P6SM BKN050 FM261800 29007KT P6SM VCTS BKN060CB FM262200 30008KT P6SM VCSH BKN070 FM270200 33003KT P6SM SCT250
KNFW 
19nm W 
2610/2707 VRB05KT 9999 SCT120 BKN250 QNH2980INS FM261300 31010G05KT 9999 VCSH BKN025 QNH2985INS FM261500 31010G15KT 9999 VCSH SCT012 BKN020 QNH2990INS FM270000 34010G15KT 1600 +SHRA BR BKN018 OVC025 QNH2990INS FM270300 02005KT 9999 VCSH BKN005 OVC015 QNH2991INS BECMG 2704/2706 VRB05KT 3200 BR BKN005 OVC011 QNH2990INS T17/2707Z T25/2721Z AMD 1040 FN20046
NOTAMs
Click for the latest NOTAMs
NOTAMs are issued by the DoD/FAA and will open in a separate window not controlled by AirNav.

 

 
 

FBO, Fuel Providers, and Aircraft Ground Support

  
 Business Name 
 
 Contact 
 
 Services / Description 
 
Fuel Prices
 
Comments
  
Harrison Aviation ASRI 131.325
817-557-0350
toll-free 1-888-383-5354
[web site]
[email]
Arlington is home to the new Dallas Cowboy Stadium and Arlington Municipal Airport is located in the heart of the DFW metroplex just 6 Miles from AT&T Stadium and quick access to I-20 and Hwy 360.
Come for your business meeting and then stay for the entertation ainment (Dallas Cowboys, Texas Rangers, Texas Live, Lone Star Park, Nokia Theater)
More info and photos of Harrison Aviation
 
NATA Safety 1st   U.S. Government Contract Fuel   Crew cars   National Business Aviation Association  
 
Shell
100LL Jet A
FS $3.89 $4.25 
SS $3.40 --- 
 Updated 20-May-2020
 
   5 read write
Alternatives at nearby airports
IMPORTANT: Note that the FBOs below are NOT at KGKY but at other nearby airports. Do not expect services from these FBOs to be available at KGKY.
Located at KRBD
Ambassador Jet Center
ASRI 131.90
214-623-8800
214-251-6512
[web site]
[email]
At KRBD (Dallas Executive Airport), 11 miles E

Premier FBO situated minutes south of Downtown Dallas in the growing Southern Sector of the Dallas warehouse and distribution district.

No daily ramp or landing fees (overnight ramp and hangar fees do apply.)

Enjoy unmatched personal service and inviting facilities designed to make your stay enjoyable.

Give one of our Customer Service Agents a call today and let us arrange your next Metro Dallas area visit..
More info and photos of Ambassador Jet Center (KRBD)
Located at KRBD
Avfuel
100LL Jet A
FS $4.29 $3.89 
GUARANTEED
AirBossMEMBER
PRICING
FS $4.19 $3.74 
 
   36 read write
FS=Full service
SS=Self service
Update Fuel Prices
 

Aviation Businesses, Services, and Facilities

  
 Business Name 
 
 Contact 
 
 Services / Description 
 
Distance
 
Comments
  
Airline Transport Professionals - ATP Flight School 904-595-7950
[web site]
[email]
ATP provides professional, accelerated, airline-oriented flight training at 42 flight schools nationwide. ATP's Airline Career Pilot Program prepares pilots for airline careers from zero time to 1,500 hours, with CFI jobs and airline employment. Fly with the nation's largest flight school and gain access to more aircraft, locations, and job placements than any flight school, academy, or aviation university can offer.
More info and photos of Airline Transport Professionals - ATP Flight School
on airport  
   1 read write
 Van Bortel Aircraft
817-468-7788
toll-free 1-800-759-4295
[web site]
[email]
Aircraft maintenance, Avionics sales and service, Aircraft modifications, Aircraft parts, Aviation accessories, Aircraft sales / leasing / brokerage
 
Cessna Service Center   Garmin  
 
More info about Van Bortel Aircraft
on airport  
   write
 

Would you like to see your business listed on this page?

 If your business provides an interesting product or service to pilots, flight crews, aircraft, or users of the Arlington Municipal Airport, you should consider listing it here.  To start the listing process, click on the button below
 
Add a business
 

Other Pages about Arlington Municipal Airport

www.arlingtontx.gov/...
 
Update a link
 
Copyright © AirNav, LLC. All rights reserved. Privacy Policy  Contact